createdAt,value
2019-02-04T00:00:47.841Z,98894.13
2019-02-04T00:01:54.750Z,98894.13
2019-02-04T00:02:57.700Z,98896.64
2019-02-04T00:04:07.221Z,98896.64
2019-02-04T00:05:12.736Z,98891.75
2019-02-04T00:06:16.070Z,98898.15
2019-02-04T00:07:25.195Z,98890.91
2019-02-04T00:08:30.397Z,98890.91
2019-02-04T00:09:33.267Z,98890.22
2019-02-04T00:10:36.092Z,98894.77
2019-02-04T00:11:39.432Z,98897.91
2019-02-04T00:12:43.637Z,98897.75
2019-02-04T00:13:48.099Z,98883.44
2019-02-04T00:14:50.966Z,98893.64
2019-02-04T00:15:53.819Z,98886.41
2019-02-04T00:16:56.805Z,98887.59
2019-02-04T00:18:02.099Z,98889.52
2019-02-04T00:19:05.187Z,98889.52
2019-02-04T00:20:08.086Z,98886.20
2019-02-04T00:21:11.465Z,98887.25
2019-02-04T00:22:14.354Z,98893.58
2019-02-04T00:23:17.469Z,98893.58
2019-02-04T00:24:21.590Z,98893.23
2019-02-04T00:25:27.918Z,98890.80
2019-02-04T00:26:30.591Z,98890.80
2019-02-04T00:27:33.510Z,98893.59
2019-02-04T00:28:36.714Z,98891.84
2019-02-04T00:29:39.544Z,98896.66
2019-02-04T00:30:42.681Z,98896.66
2019-02-04T00:31:45.506Z,98889.42
2019-02-04T00:32:48.396Z,98887.98
2019-02-04T00:33:51.234Z,98887.39
2019-02-04T00:34:56.200Z,98887.39
2019-02-04T00:35:59.052Z,98898.54
2019-02-04T00:37:02.143Z,98898.38
2019-02-04T00:38:05.048Z,98897.83
2019-02-04T00:39:08.100Z,98898.34
2019-02-04T00:40:11.394Z,98902.05
2019-02-04T00:41:14.222Z,98899.08
2019-02-04T00:42:17.042Z,98899.08
2019-02-04T00:43:19.891Z,98902.41
2019-02-04T00:44:25.008Z,98892.14
2019-02-04T00:45:27.920Z,98899.23
2019-02-04T00:46:30.738Z,98899.23
2019-02-04T00:47:34.034Z,98906.20
2019-02-04T00:48:36.912Z,98906.20
2019-02-04T00:49:41.212Z,98901.94
2019-02-04T00:50:44.120Z,98898.82
2019-02-04T00:51:46.997Z,98905.23
2019-02-04T00:52:54.547Z,98906.17
2019-02-04T00:53:57.719Z,98897.83
2019-02-04T00:55:00.572Z,98900.25
2019-02-04T00:56:04.157Z,98903.62
2019-02-04T00:57:07.108Z,98902.58
2019-02-04T00:58:14.102Z,98908.02
2019-02-04T00:59:16.987Z,98908.02
2019-02-04T01:00:21.410Z,98893.89
2019-02-04T01:01:24.377Z,98893.56
2019-02-04T01:02:27.581Z,98902.87
2019-02-04T01:03:30.497Z,98902.87
2019-02-04T01:04:33.374Z,98894.84
2019-02-04T01:05:36.292Z,98908.50
2019-02-04T01:06:39.251Z,98903.78
2019-02-04T01:07:42.439Z,98900.98
2019-02-04T01:08:45.268Z,98901.86
2019-02-04T01:09:48.120Z,98901.91
2019-02-04T01:10:51.523Z,98905.59
2019-02-04T01:11:54.862Z,98904.37
2019-02-04T01:12:57.797Z,98898.13
2019-02-04T01:14:00.733Z,98897.13
2019-02-04T01:15:03.871Z,98904.37
2019-02-04T01:16:06.772Z,98911.99
2019-02-04T01:17:09.584Z,98913.88
2019-02-04T01:18:12.745Z,98913.88
2019-02-04T01:19:15.624Z,98916.05
2019-02-04T01:20:18.847Z,98914.20
2019-02-04T01:21:21.690Z,98912.38
2019-02-04T01:22:25.772Z,98912.38
2019-02-04T01:23:28.686Z,98905.63
2019-02-04T01:24:31.829Z,98913.95
2019-02-04T01:25:34.686Z,98918.27
2019-02-04T01:26:37.560Z,98908.27
2019-02-04T01:27:40.482Z,98920.14
2019-02-04T01:28:46.383Z,98919.19
2019-02-04T01:29:49.246Z,98919.23
2019-02-04T01:30:52.436Z,98924.30
2019-02-04T01:31:55.268Z,98922.86
2019-02-04T01:32:58.141Z,98922.86
2019-02-04T01:34:01.258Z,98925.73
2019-02-04T01:35:04.053Z,98934.44
2019-02-04T01:36:06.889Z,98936.06
2019-02-04T01:37:10.381Z,98941.42
2019-02-04T01:38:13.298Z,98932.72
2019-02-04T01:39:16.142Z,98942.91
2019-02-04T01:40:21.206Z,98944.77
2019-02-04T01:41:24.045Z,98941.33
2019-02-04T01:42:26.868Z,98946.83
2019-02-04T01:43:30.020Z,98946.83
2019-02-04T01:44:32.845Z,98943.08
2019-02-04T01:45:37.997Z,98944.01
2019-02-04T01:46:41.484Z,98943.25
2019-02-04T01:47:44.697Z,98942.01
2019-02-04T01:48:47.577Z,98949.18
2019-02-04T01:49:59.378Z,98949.23
2019-02-04T01:51:02.172Z,98951.23
2019-02-04T01:52:05.022Z,98946.28
2019-02-04T01:53:07.823Z,98946.28
2019-02-04T01:54:10.705Z,98953.91
2019-02-04T01:55:13.640Z,98960.75
2019-02-04T01:56:19.503Z,98960.75
2019-02-04T01:57:22.332Z,98961.73
2019-02-04T01:58:25.265Z,98959.84
2019-02-04T01:59:30.939Z,98962.92
2019-02-04T02:00:34.169Z,98965.14
2019-02-04T02:01:37.369Z,98962.84
2019-02-04T02:02:46.074Z,98971.60
2019-02-04T02:03:49.737Z,98974.30
2019-02-04T02:04:53.090Z,98974.30
2019-02-04T02:05:55.907Z,98974.89
2019-02-04T02:06:58.755Z,98974.35
2019-02-04T02:08:03.221Z,98972.41
2019-02-04T02:09:09.843Z,98978.73
2019-02-04T02:10:12.712Z,98977.52
2019-02-04T02:11:17.427Z,98977.25
2019-02-04T02:12:20.207Z,98971.20
2019-02-04T02:13:25.959Z,98971.97
2019-02-04T02:14:28.785Z,98967.20
2019-02-04T02:15:32.096Z,98965.66
2019-02-04T02:16:35.314Z,98966.50
2019-02-04T02:17:38.118Z,98964.16
2019-02-04T02:18:41.129Z,98958.55
2019-02-04T02:19:44.319Z,98961.30
2019-02-04T02:20:47.236Z,98961.30
2019-02-04T02:21:50.070Z,98957.11
2019-02-04T02:22:52.896Z,98964.64
2019-02-04T02:23:55.723Z,98960.58
2019-02-04T02:24:58.952Z,98960.58
2019-02-04T02:26:02.284Z,98959.16
2019-02-04T02:27:05.525Z,98961.39
2019-02-04T02:28:08.386Z,98958.25
2019-02-04T02:29:11.647Z,98955.36
2019-02-04T02:30:14.877Z,98960.72
2019-02-04T02:31:18.030Z,98960.72
2019-02-04T02:32:21.145Z,98955.78
2019-02-04T02:33:23.995Z,98957.45
2019-02-04T02:34:26.798Z,98957.45
2019-02-04T02:35:29.724Z,98951.72
2019-02-04T02:36:32.870Z,98959.05
2019-02-04T02:37:36.157Z,98948.41
2019-02-04T02:38:39.024Z,98961.68
2019-02-04T02:39:41.834Z,98961.39
2019-02-04T02:40:44.664Z,98961.68
2019-02-04T02:41:47.936Z,98960.30
2019-02-04T02:42:50.780Z,98959.84
2019-02-04T02:43:54.205Z,98959.84
2019-02-04T02:44:57.533Z,98943.47
2019-02-04T02:46:00.368Z,98949.25
2019-02-04T02:47:03.675Z,98949.25
2019-02-04T02:48:06.499Z,98952.02
2019-02-04T02:49:09.302Z,98948.08
2019-02-04T02:50:12.443Z,98948.08
2019-02-04T02:51:15.727Z,98946.19
2019-02-04T02:52:18.759Z,98951.17
2019-02-04T02:53:21.830Z,98951.55
2019-02-04T02:54:25.237Z,98952.25
2019-02-04T02:55:28.297Z,98952.25
2019-02-04T02:56:31.702Z,98942.91
2019-02-04T02:57:34.519Z,98951.02
2019-02-04T02:58:37.364Z,98951.02
2019-02-04T02:59:40.178Z,98949.98
2019-02-04T03:00:42.988Z,98952.45
2019-02-04T03:01:45.847Z,98955.67
2019-02-04T03:02:48.982Z,98950.27
2019-02-04T03:03:52.261Z,98961.78
2019-02-04T03:04:55.101Z,98951.73
2019-02-04T03:05:58.926Z,98962.28
2019-02-04T03:07:02.059Z,98956.24
2019-02-04T03:08:04.884Z,98955.20
2019-02-04T03:09:08.212Z,98956.58
2019-02-04T03:10:11.016Z,98958.77
2019-02-04T03:11:13.804Z,98952.02
2019-02-04T03:12:16.623Z,98957.77
2019-02-04T03:13:19.491Z,98955.63
2019-02-04T03:14:22.275Z,98956.42
2019-02-04T03:15:27.074Z,98954.09
2019-02-04T03:16:29.876Z,98961.21
2019-02-04T03:17:33.109Z,98965.07
2019-02-04T03:18:36.001Z,98965.07
2019-02-04T03:19:38.838Z,98964.82
2019-02-04T03:20:42.083Z,98971.26
2019-02-04T03:21:45.203Z,98971.26
2019-02-04T03:22:48.366Z,98968.20
2019-02-04T03:23:51.250Z,98968.20
2019-02-04T03:24:54.061Z,98967.95
2019-02-04T03:25:56.859Z,98970.38
2019-02-04T03:27:00.089Z,98963.48
2019-02-04T03:28:03.200Z,98965.86
2019-02-04T03:29:06.082Z,98961.59
2019-02-04T03:30:10.085Z,98963.86
2019-02-04T03:31:12.907Z,98958.84
2019-02-04T03:32:15.742Z,98964.45
2019-02-04T03:33:20.078Z,98963.82
2019-02-04T03:34:23.308Z,98965.91
2019-02-04T03:35:26.492Z,98964.90
2019-02-04T03:36:32.342Z,98962.22
2019-02-04T03:37:35.251Z,98962.22
2019-02-04T03:38:38.052Z,98973.91
2019-02-04T03:39:41.791Z,98968.67
2019-02-04T03:40:45.509Z,98973.02
2019-02-04T03:41:48.313Z,98976.25
2019-02-04T03:42:51.145Z,98979.14
2019-02-04T03:43:57.002Z,98979.14
2019-02-04T03:44:58.437Z,98988.53
2019-02-04T03:46:01.326Z,98988.53
2019-02-04T03:47:04.910Z,98983.01
2019-02-04T03:48:07.729Z,98982.96
2019-02-04T03:49:12.199Z,98982.96
2019-02-04T03:50:15.428Z,98997.03
2019-02-04T03:51:18.391Z,99000.75
2019-02-04T03:52:21.245Z,99000.71
2019-02-04T03:53:24.351Z,98999.03
2019-02-04T03:54:27.147Z,98989.05
2019-02-04T03:55:29.939Z,98996.89
2019-02-04T03:56:32.840Z,98995.26
2019-02-04T03:57:35.661Z,98995.26
2019-02-04T03:58:38.521Z,98984.04
2019-02-04T03:59:41.639Z,98987.17
2019-02-04T04:00:44.849Z,98986.38
2019-02-04T04:01:47.681Z,98988.02
2019-02-04T04:02:50.955Z,98992.09
2019-02-04T04:03:53.831Z,98992.09
2019-02-04T04:04:56.637Z,98994.77
2019-02-04T04:05:59.726Z,98993.19
2019-02-04T04:07:05.086Z,98993.19
2019-02-04T04:08:07.925Z,98998.09
2019-02-04T04:09:11.207Z,98991.64
2019-02-04T04:10:14.022Z,98997.25
2019-02-04T04:11:16.839Z,98998.84
2019-02-04T04:12:20.101Z,98998.84
2019-02-04T04:13:24.693Z,98996.16
2019-02-04T04:14:27.890Z,98998.89
2019-02-04T04:15:31.183Z,98992.48
2019-02-04T04:16:34.293Z,98994.53
2019-02-04T04:17:37.153Z,98990.46
2019-02-04T04:18:40.029Z,99000.52
2019-02-04T04:19:43.222Z,99000.52
2019-02-04T04:20:48.805Z,99003.78
2019-02-04T04:21:51.602Z,99003.78
2019-02-04T04:22:58.502Z,99002.39
2019-02-04T04:24:01.402Z,99004.13
2019-02-04T04:25:06.978Z,99000.66
2019-02-04T04:26:09.773Z,98999.86
2019-02-04T04:27:12.593Z,99001.20
2019-02-04T04:28:15.839Z,99001.20
2019-02-04T04:29:19.000Z,98998.09
2019-02-04T04:30:22.081Z,98998.09
2019-02-04T04:31:24.897Z,99003.39
2019-02-04T04:32:30.030Z,99003.39
2019-02-04T04:33:32.179Z,99006.07
2019-02-04T04:34:35.101Z,99009.30
2019-02-04T04:35:38.234Z,99008.50
2019-02-04T04:36:41.086Z,99006.07
2019-02-04T04:37:43.922Z,99006.07
2019-02-04T04:38:46.762Z,99006.36
2019-02-04T04:39:49.622Z,99006.36
2019-02-04T04:40:53.318Z,99014.34
2019-02-04T04:41:56.415Z,99001.71
2019-02-04T04:42:59.519Z,99001.71
2019-02-04T04:44:03.996Z,98998.00
2019-02-04T04:45:07.238Z,98998.79
2019-02-04T04:46:10.045Z,99000.47
2019-02-04T04:47:12.893Z,99000.47
2019-02-04T04:48:26.054Z,99003.70
2019-02-04T04:49:20.527Z,98996.50
2019-02-04T04:50:23.381Z,99010.14
2019-02-04T04:51:26.186Z,99006.33
2019-02-04T04:52:29.077Z,99002.56
2019-02-04T04:53:31.899Z,99003.61
2019-02-04T04:54:35.004Z,99003.61
2019-02-04T04:55:37.814Z,98996.91
2019-02-04T04:56:41.363Z,98984.52
2019-02-04T04:57:44.225Z,98987.44
2019-02-04T04:58:49.550Z,98995.18
2019-02-04T04:59:52.369Z,98988.73
2019-02-04T05:00:55.488Z,98980.30
2019-02-04T05:02:01.835Z,98980.30
2019-02-04T05:03:04.755Z,98987.34
2019-02-04T05:04:07.576Z,98990.02
2019-02-04T05:05:10.383Z,98989.32
2019-02-04T05:06:13.638Z,98989.83
2019-02-04T05:07:16.831Z,98986.30
2019-02-04T05:08:20.182Z,98985.51
2019-02-04T05:09:23.011Z,98985.51
2019-02-04T05:10:26.042Z,98984.81
2019-02-04T05:11:28.910Z,98978.58
2019-02-04T05:12:31.714Z,98979.27
2019-02-04T05:13:34.933Z,98979.27
2019-02-04T05:14:37.733Z,98980.14
2019-02-04T05:15:40.578Z,98983.87
2019-02-04T05:16:43.987Z,98973.61
2019-02-04T05:17:46.789Z,98985.95
2019-02-04T05:18:49.678Z,98985.95
2019-02-04T05:19:52.838Z,98980.20
2019-02-04T05:20:55.715Z,98985.85
2019-02-04T05:21:58.533Z,98985.85
2019-02-04T05:23:01.595Z,98984.26
2019-02-04T05:24:04.386Z,98979.41
2019-02-04T05:25:07.272Z,98971.81
2019-02-04T05:26:10.472Z,98971.92
2019-02-04T05:27:13.751Z,98971.97
2019-02-04T05:28:18.106Z,98973.95
2019-02-04T05:29:20.922Z,98972.32
2019-02-04T05:30:23.783Z,98976.37
2019-02-04T05:31:26.596Z,98979.63
2019-02-04T05:32:29.526Z,98978.53
2019-02-04T05:33:32.328Z,98978.75
2019-02-04T05:34:35.120Z,98973.29
2019-02-04T05:35:38.302Z,98973.29
2019-02-04T05:36:41.704Z,98976.84
2019-02-04T05:37:44.586Z,98969.66
2019-02-04T05:38:47.536Z,98980.41
2019-02-04T05:39:50.504Z,98977.91
2019-02-04T05:40:53.598Z,98978.61
2019-02-04T05:42:00.759Z,98983.36
2019-02-04T05:43:03.633Z,98983.36
2019-02-04T05:44:07.042Z,98985.53
2019-02-04T05:45:09.869Z,98992.55
2019-02-04T05:46:12.759Z,98988.37
2019-02-04T05:47:15.573Z,98987.33
2019-02-04T05:48:18.772Z,98990.86
2019-02-04T05:49:24.950Z,98995.58
2019-02-04T05:50:28.609Z,98995.87
2019-02-04T05:51:34.515Z,99000.13
2019-02-04T05:52:38.988Z,98996.32
2019-02-04T05:53:42.365Z,98992.31
2019-02-04T05:54:45.216Z,98994.77
2019-02-04T05:55:48.090Z,98994.77
2019-02-04T05:56:51.367Z,99001.55
2019-02-04T05:57:54.307Z,99002.03
2019-02-04T05:58:58.290Z,99002.03
2019-02-04T06:00:01.224Z,99011.27
2019-02-04T06:01:04.639Z,99010.80
2019-02-04T06:02:09.444Z,99011.59
2019-02-04T06:03:12.288Z,99013.23
2019-02-04T06:04:15.495Z,99016.52
2019-02-04T06:05:18.366Z,99017.97
2019-02-04T06:06:21.201Z,99020.28
2019-02-04T06:07:24.027Z,99021.62
2019-02-04T06:08:26.867Z,99023.73
2019-02-04T06:09:30.131Z,99027.03
2019-02-04T06:10:32.977Z,99024.89
2019-02-04T06:11:35.790Z,99022.89
2019-02-04T06:12:38.600Z,99023.94
2019-02-04T06:13:41.992Z,99026.91
2019-02-04T06:14:44.902Z,99017.55
2019-02-04T06:15:48.175Z,99017.55
2019-02-04T06:16:51.353Z,99027.50
2019-02-04T06:17:57.518Z,99023.31
2019-02-04T06:19:01.227Z,99021.62
2019-02-04T06:20:04.212Z,99027.20
2019-02-04T06:21:07.034Z,99027.20
2019-02-04T06:23:25.100Z,99031.09
2019-02-04T06:24:28.065Z,99031.09
2019-02-04T06:25:31.580Z,99027.31
2019-02-04T06:26:34.448Z,99031.02
2019-02-04T06:27:37.366Z,99031.02
2019-02-04T06:28:40.656Z,99034.50
2019-02-04T06:29:43.482Z,99043.89
2019-02-04T06:43:47.755Z,99048.67
2019-02-04T06:44:50.641Z,99055.05
2019-02-04T06:45:53.569Z,99054.75
2019-02-04T06:46:56.807Z,99054.55
2019-02-04T06:47:59.770Z,99054.55
2019-02-04T06:49:11.924Z,99048.54
2019-02-04T06:50:09.683Z,99059.19
2019-02-04T06:51:12.894Z,99048.31
2019-02-04T06:52:15.767Z,99057.72
2019-02-04T06:53:18.663Z,99055.22
2019-02-04T06:54:21.580Z,99055.02
2019-02-04T06:55:24.821Z,99060.95
2019-02-04T06:56:27.725Z,99062.83
2019-02-04T06:57:30.806Z,99064.80
2019-02-04T06:58:33.614Z,99064.80
2019-02-04T06:59:37.000Z,99065.23
2019-02-04T07:00:39.820Z,99065.23
2019-02-04T07:01:48.082Z,99070.11
2019-02-04T07:02:51.018Z,99061.92
2019-02-04T07:03:54.123Z,99065.20
2019-02-04T07:04:59.296Z,99065.20
2019-02-04T07:06:02.123Z,99070.13
2019-02-04T07:07:04.967Z,99062.19
2019-02-04T07:08:08.342Z,99054.47
2019-02-04T07:09:11.231Z,99066.35
2019-02-04T07:10:14.045Z,99060.64
2019-02-04T07:11:16.929Z,99060.64
2019-02-04T07:12:19.885Z,99065.22
2019-02-04T07:13:22.776Z,99076.03
2019-02-04T07:14:26.936Z,99072.86
2019-02-04T07:15:29.737Z,99074.20
2019-02-04T07:16:33.770Z,99079.28
2019-02-04T07:17:37.031Z,99078.55
2019-02-04T07:18:39.874Z,99079.66
2019-02-04T07:19:42.703Z,99079.66
2019-02-04T07:20:45.892Z,99078.02
2019-02-04T07:21:49.632Z,99077.11
2019-02-04T07:22:52.469Z,99081.84
2019-02-04T07:23:55.388Z,99074.94
2019-02-04T07:24:58.216Z,99078.28
2019-02-04T07:26:01.565Z,99078.28
2019-02-04T07:27:04.708Z,99073.59
2019-02-04T07:28:07.923Z,99073.59
2019-02-04T07:29:11.442Z,99077.73
2019-02-04T07:30:17.655Z,99066.92
2019-02-04T07:31:22.131Z,99073.03
2019-02-04T07:32:25.623Z,99072.52
2019-02-04T07:33:29.005Z,99072.52
2019-02-04T07:34:33.545Z,99071.11
2019-02-04T07:35:36.360Z,99069.12
2019-02-04T07:36:39.203Z,99064.43
2019-02-04T07:37:42.086Z,99061.70
2019-02-04T07:38:46.405Z,99069.58
2019-02-04T07:39:49.706Z,99061.20
2019-02-04T07:40:57.164Z,99065.71
2019-02-04T07:42:00.076Z,99061.82
2019-02-04T07:43:04.225Z,99062.35
2019-02-04T07:44:07.326Z,99060.48
2019-02-04T07:45:10.139Z,99056.35
2019-02-04T07:46:13.622Z,99056.35
2019-02-04T07:47:16.514Z,99062.00
2019-02-04T07:48:19.327Z,99062.00
2019-02-04T07:49:22.145Z,99057.19
2019-02-04T07:50:25.495Z,99062.13
2019-02-04T07:51:28.334Z,99062.13
2019-02-04T07:52:31.583Z,99062.95
2019-02-04T07:53:34.385Z,99066.31
2019-02-04T07:54:45.194Z,99065.06
2019-02-04T07:55:48.454Z,99064.40
2019-02-04T07:56:55.955Z,99069.07
2019-02-04T07:57:58.832Z,99067.14
2019-02-04T07:59:08.340Z,99067.14
2019-02-04T08:00:11.405Z,99070.05
2019-02-04T08:01:14.954Z,99067.03
2019-02-04T08:02:17.826Z,99067.03
2019-02-04T08:03:20.723Z,99071.09
2019-02-04T08:04:24.896Z,99071.09
2019-02-04T08:05:28.189Z,99063.63
2019-02-04T08:06:30.998Z,99063.63
2019-02-04T08:07:33.806Z,99056.98
2019-02-04T08:08:36.833Z,99059.06
2019-02-04T08:09:39.720Z,99053.97
2019-02-04T08:10:45.295Z,99052.32
2019-02-04T08:11:51.426Z,99052.32
2019-02-04T08:13:01.682Z,99050.56
2019-02-04T08:13:58.958Z,99040.84
2019-02-04T08:15:09.951Z,99046.77
2019-02-04T08:16:13.047Z,99041.80
2019-02-04T08:17:15.823Z,99041.80
2019-02-04T08:18:19.094Z,99047.39
2019-02-04T08:19:24.010Z,99041.13
2019-02-04T08:20:26.423Z,99039.62
2019-02-04T08:21:30.534Z,99041.38
2019-02-04T08:22:33.348Z,99041.38
2019-02-04T08:23:36.671Z,99044.55
2019-02-04T08:24:40.123Z,99043.75
2019-02-04T08:25:45.502Z,99042.27
2019-02-04T08:26:48.429Z,99039.03
2019-02-04T08:27:51.670Z,99040.72
2019-02-04T08:28:56.256Z,99039.72
2019-02-04T08:29:59.406Z,99043.41
2019-02-04T08:31:02.709Z,99041.04
2019-02-04T08:32:05.741Z,99041.37
2019-02-04T08:33:08.655Z,99033.98
2019-02-04T08:34:11.758Z,99036.68
2019-02-04T08:35:14.650Z,99032.76
2019-02-04T08:36:17.475Z,99038.46
2019-02-04T08:37:20.819Z,99033.31
2019-02-04T08:38:25.178Z,99038.15
2019-02-04T08:39:28.007Z,99041.69
2019-02-04T08:40:30.817Z,99039.52
2019-02-04T08:41:33.656Z,99043.92
2019-02-04T08:42:36.977Z,99043.92
2019-02-04T08:43:40.191Z,99036.11
2019-02-04T08:44:42.987Z,99036.11
2019-02-04T08:45:45.813Z,99031.61
2019-02-04T08:46:48.683Z,122438.84
2019-02-04T08:47:51.612Z,122438.84
2019-02-04T08:48:54.452Z,122438.84
2019-02-04T08:49:58.632Z,122438.84
2019-02-04T08:51:02.029Z,99034.08
2019-02-04T08:52:06.898Z,99037.29
2019-02-04T08:53:10.585Z,99037.29
2019-02-04T08:54:13.493Z,99031.52
2019-02-04T08:55:16.627Z,99032.31
2019-02-04T08:56:22.407Z,99035.59
2019-02-04T08:57:25.791Z,99040.56
2019-02-04T08:58:28.676Z,99039.29
2019-02-04T08:59:31.525Z,99036.06
2019-02-04T09:00:34.474Z,99050.10
2019-02-04T09:01:37.313Z,99047.41
2019-02-04T09:02:40.536Z,99056.90
2019-02-04T09:03:43.828Z,99051.33
2019-02-04T09:04:47.377Z,99054.50
2019-02-04T09:05:50.661Z,99055.05
2019-02-04T09:06:53.483Z,99055.05
2019-02-04T09:07:56.597Z,99060.19
2019-02-04T09:08:59.784Z,99054.28
2019-02-04T09:10:02.590Z,99055.39
2019-02-04T09:11:07.422Z,99051.14
2019-02-04T09:12:13.490Z,99051.14
2019-02-04T09:13:17.326Z,99051.53
2019-02-04T09:14:20.290Z,99049.47
2019-02-04T09:15:23.946Z,99045.87
2019-02-04T09:16:26.886Z,99045.87
2019-02-04T09:17:30.686Z,99049.44
2019-02-04T09:18:44.377Z,99054.89
2019-02-04T09:19:41.289Z,99052.95
2019-02-04T09:20:47.208Z,99052.95
2019-02-04T09:21:51.170Z,99051.19
2019-02-04T09:22:54.036Z,99052.31
2019-02-04T09:23:56.964Z,99044.83
2019-02-04T09:25:02.036Z,99052.91
2019-02-04T09:26:04.912Z,99039.00
2019-02-04T09:27:07.806Z,99039.00
2019-02-04T09:28:14.254Z,99055.74
2019-02-04T09:29:21.806Z,99053.41
2019-02-04T09:30:27.086Z,99053.41
2019-02-04T09:31:29.978Z,99050.11
2019-02-04T09:32:36.572Z,99050.42
2019-02-04T09:33:39.530Z,99053.18
2019-02-04T09:34:42.730Z,99044.27
2019-02-04T09:35:45.530Z,99046.96
2019-02-04T09:36:49.067Z,99047.74
2019-02-04T09:37:53.546Z,99049.26
2019-02-04T09:38:56.401Z,99049.26
2019-02-04T09:39:59.348Z,99047.53
2019-02-04T09:41:03.114Z,99043.42
2019-02-04T09:42:08.709Z,99038.20
2019-02-04T09:43:12.126Z,99037.97
2019-02-04T09:44:15.089Z,99033.98
2019-02-04T09:45:25.431Z,99033.98
2019-02-04T09:46:31.727Z,99033.31
2019-02-04T09:47:34.714Z,99033.31
2019-02-04T09:48:38.832Z,99026.17
2019-02-04T09:49:41.651Z,99014.58
2019-02-04T09:50:44.984Z,99014.58
2019-02-04T09:51:47.819Z,99003.61
2019-02-04T09:52:50.964Z,99007.08
2019-02-04T09:53:54.516Z,99007.08
2019-02-04T09:55:00.298Z,99008.75
2019-02-04T09:56:03.741Z,99008.75
2019-02-04T09:57:08.722Z,99002.44
2019-02-04T09:58:11.846Z,98994.46
2019-02-04T09:59:16.007Z,98998.08
2019-02-04T10:00:18.867Z,98996.86
2019-02-04T10:01:22.245Z,98996.86
2019-02-04T10:02:26.141Z,98998.63
2019-02-04T10:03:29.432Z,99002.17
2019-02-04T10:04:35.507Z,99002.17
2019-02-04T10:05:38.392Z,98990.80
2019-02-04T10:06:41.499Z,98988.28
2019-02-04T10:07:44.715Z,98990.14
2019-02-04T10:08:48.198Z,98993.19
2019-02-04T10:09:51.251Z,98984.81
2019-02-04T10:10:54.099Z,98987.78
2019-02-04T10:11:56.908Z,98990.92
2019-02-04T10:12:59.742Z,98989.16
2019-02-04T10:14:02.603Z,98984.91
2019-02-04T10:15:05.611Z,98989.30
2019-02-04T10:16:11.807Z,98989.30
2019-02-04T10:17:14.758Z,98989.16
2019-02-04T10:18:20.055Z,98985.20
2019-02-04T10:19:22.982Z,98985.20
2019-02-04T10:20:33.578Z,98993.27
2019-02-04T10:21:30.821Z,98985.95
2019-02-04T10:22:35.317Z,98983.02
2019-02-04T10:23:41.889Z,98988.11
2019-02-04T10:24:44.874Z,98988.66
2019-02-04T10:25:47.755Z,98983.28
2019-02-04T10:26:56.099Z,98974.94
2019-02-04T10:27:58.958Z,98980.63
2019-02-04T10:29:04.908Z,98981.10
2019-02-04T10:30:07.938Z,98979.30
2019-02-04T10:31:10.852Z,98988.13
2019-02-04T10:32:14.240Z,98980.97
2019-02-04T10:33:17.288Z,98980.97
2019-02-04T10:34:20.273Z,98988.04
2019-02-04T10:35:23.866Z,98987.91
2019-02-04T10:36:27.072Z,98980.57
2019-02-04T10:37:30.404Z,98980.57
2019-02-04T10:38:33.732Z,98977.06
2019-02-04T10:39:36.814Z,98978.52
2019-02-04T10:40:39.847Z,98980.33
2019-02-04T10:41:42.948Z,98976.91
2019-02-04T10:42:45.884Z,98986.71
2019-02-04T10:43:49.305Z,98986.71
2019-02-04T10:44:52.232Z,98989.45
2019-02-04T10:45:57.585Z,98971.34
2019-02-04T10:47:00.619Z,98971.08
2019-02-04T10:48:05.053Z,98967.20
2019-02-04T10:49:07.910Z,98983.62
2019-02-04T10:50:12.191Z,98983.62
2019-02-04T10:51:16.824Z,98964.95
2019-02-04T10:52:19.722Z,98964.95
2019-02-04T10:53:25.174Z,98966.19
2019-02-04T10:54:28.064Z,98969.77
2019-02-04T10:55:33.728Z,98964.11
2019-02-04T10:56:36.593Z,98971.82
2019-02-04T10:57:40.883Z,98979.87
2019-02-04T10:58:43.892Z,98973.68
2019-02-04T10:59:54.143Z,98951.41
2019-02-04T11:00:57.069Z,98951.41
2019-02-04T11:01:59.910Z,98956.53
2019-02-04T11:03:05.140Z,98956.53
2019-02-04T11:04:09.377Z,98950.03
2019-02-04T11:05:12.313Z,98950.03
2019-02-04T11:06:16.851Z,98950.40
2019-02-04T11:07:20.535Z,98956.97
2019-02-04T11:08:25.484Z,98965.36
2019-02-04T11:09:28.373Z,98931.50
2019-02-04T11:10:34.775Z,98931.50
2019-02-04T11:11:37.950Z,98939.74
2019-02-04T11:12:40.795Z,98943.02
2019-02-04T11:13:44.347Z,98950.81
2019-02-04T11:14:47.918Z,98940.25
2019-02-04T11:15:52.198Z,98930.41
2019-02-04T11:16:58.224Z,98930.41
2019-02-04T11:18:01.570Z,98941.73
2019-02-04T11:19:06.284Z,98941.68
2019-02-04T11:20:11.501Z,98941.61
2019-02-04T11:21:14.362Z,98954.23
2019-02-04T11:22:17.599Z,98939.49
2019-02-04T11:23:20.544Z,98939.49
2019-02-04T11:24:26.725Z,98945.17
2019-02-04T11:25:31.264Z,98939.70
2019-02-04T11:26:34.072Z,98939.70
2019-02-04T11:27:37.015Z,98949.77
2019-02-04T11:28:40.096Z,98944.68
2019-02-04T11:29:43.876Z,98943.83
2019-02-04T11:42:51.815Z,98940.94
2019-02-04T11:43:56.965Z,98915.12
2019-02-04T11:44:59.894Z,98941.32
2019-02-04T11:46:02.752Z,98940.28
2019-02-04T11:47:05.693Z,98934.27
2019-02-04T11:48:08.911Z,98926.16
2019-02-04T11:49:12.223Z,98926.16
2019-02-04T11:50:15.079Z,98934.05
2019-02-04T11:51:18.355Z,98934.05
2019-02-04T11:52:21.364Z,98925.61
2019-02-04T11:53:32.205Z,98929.39
2019-02-04T11:54:31.550Z,98929.39
2019-02-04T11:55:34.201Z,98921.91
2019-02-04T11:56:37.424Z,98934.62
2019-02-04T11:57:40.235Z,98929.73
2019-02-04T11:58:43.908Z,98944.04
2019-02-04T11:59:46.873Z,98933.28
2019-02-04T12:00:49.684Z,98933.28
2019-02-04T12:01:52.565Z,98940.28
2019-02-04T12:02:55.600Z,98930.06
2019-02-04T12:03:58.496Z,98930.06
2019-02-04T12:05:04.890Z,98926.89
2019-02-04T12:06:09.194Z,98947.66
2019-02-04T12:07:12.198Z,98918.45
2019-02-04T12:08:15.066Z,98918.45
2019-02-04T12:09:18.728Z,98917.41
2019-02-04T12:10:24.588Z,98940.93
2019-02-04T12:11:27.346Z,98913.73
2019-02-04T12:12:30.267Z,98913.73
2019-02-04T12:13:33.045Z,98918.34
2019-02-04T12:14:35.956Z,98918.34
2019-02-04T12:15:39.954Z,98924.77
2019-02-04T12:16:42.879Z,98917.42
2019-02-04T12:17:46.068Z,98911.27
2019-02-04T12:18:49.026Z,98912.08
2019-02-04T12:19:52.715Z,98912.08
2019-02-04T12:20:55.560Z,98934.09
2019-02-04T12:21:58.570Z,98906.09
2019-02-04T12:23:01.802Z,98906.41
2019-02-04T12:24:07.960Z,98900.55
2019-02-04T12:25:11.034Z,98900.55
2019-02-04T12:26:19.117Z,98904.30
2019-02-04T12:27:31.715Z,98898.42
2019-02-04T12:28:31.932Z,98891.67
2019-02-04T12:29:34.842Z,98901.91
2019-02-04T12:30:38.151Z,98884.92
2019-02-04T12:31:41.288Z,98901.38
2019-02-04T12:32:51.399Z,98896.55
2019-02-04T12:33:54.363Z,98897.06
2019-02-04T12:35:01.226Z,98897.06
2019-02-04T12:36:02.252Z,98893.03
2019-02-04T12:37:08.614Z,98902.19
2019-02-04T12:38:11.893Z,98891.67
2019-02-04T12:39:20.507Z,98905.72
2019-02-04T12:40:23.656Z,98915.66
2019-02-04T12:41:27.485Z,98885.14
2019-02-04T12:42:30.360Z,98891.60
2019-02-04T12:43:35.096Z,98887.02
2019-02-04T12:44:38.006Z,98883.28
2019-02-04T12:45:41.133Z,98894.28
2019-02-04T12:46:48.129Z,98884.08
2019-02-04T12:47:52.754Z,98881.39
2019-02-04T12:48:57.305Z,98871.72
2019-02-04T12:50:00.007Z,98871.72
2019-02-04T12:51:02.862Z,98889.73
2019-02-04T12:52:05.747Z,98889.73
2019-02-04T12:53:10.454Z,98876.22